Terminal Aerodrome Forecast
Issued by NWS

Home | Current Version | Previous Version | Text Only | Print | Product List | Glossary On
Versions: 1 2 3 4 5 6 7 8 9 10 11 12 13 14 15 16 17 18 19 20 21 22 23
000
FTUS41 KOKX 270832 AAA
TAFSWF
TAF AMD
KSWF 270832Z 2709/2812 35008KT 6SM -SHRA BR BKN025
     FM271100 35005KT 5SM -SNRA BR BKN025
     FM271200 32006KT P6SM SCT030 BKN080
     FM271600 33006KT P6SM BKN035
     FM280600 33010KT P6SM SCT050 BKN150
      AMD NOT SKED=

USA.gov is the U.S. government's official web portal to all federal, state and local government web resources and services.